Time;durP1;ratioP1;P1;durP2;ratioP2;P2;SDS_P1;SDS_P2;PMS_P1;PMS_P2;Temp;Humidity;BMP_temperature;BMP_pressure;BME280_temperature;BME280_humidity;BME280_pressure;Samples;Min_cycle;Max_cycle;Signal;HPM_P1;HPM_P2
2021/10/02 00:46:23;;;;;;;9.25;6.82;;;;;;;13.31;100.00;101137.53;5258842;28;20492;-67
2021/10/02 00:48:55;;;;;;;10.18;6.38;;;;;;;13.28;100.00;101142.25;5260303;28;20037;-68
2021/10/02 00:51:26;;;;;;;9.45;6.93;;;;;;;13.26;100.00;101136.28;5261057;28;20080;-68
2021/10/02 00:53:57;;;;;;;7.45;6.65;;;;;;;13.23;100.00;101129.53;5261474;28;20033;-67
2021/10/02 00:56:29;;;;;;;10.48;7.28;;;;;;;13.22;100.00;101130.47;5259625;28;20035;-67
2021/10/02 00:59:00;;;;;;;11.18;6.90;;;;;;;13.20;100.00;101136.81;5260753;28;20040;-67
2021/10/02 01:01:43;;;;;;;9.40;6.60;;;;;;;13.24;100.00;101139.06;5260868;28;20371;-67
2021/10/02 01:04:22;;;;;;;9.27;6.20;;;;;;;13.18;100.00;101134.31;5259758;28;20037;-67
2021/10/02 01:06:53;;;;;;;11.65;7.38;;;;;;;13.15;100.00;101132.00;5260684;28;20154;-67
2021/10/02 01:09:47;;;;;;;8.93;7.43;;;;;;;13.19;100.00;101127.28;5260750;28;20095;-67
2021/10/02 01:12:24;;;;;;;9.13;7.55;;;;;;;13.21;100.00;101120.06;5258353;28;20067;-67
2021/10/02 01:15:04;;;;;;;10.55;7.40;;;;;;;13.22;100.00;101129.59;5263017;28;20032;-67
2021/10/02 01:17:49;;;;;;;10.15;7.30;;;;;;;13.19;100.00;101119.38;5250856;28;20037;-67
2021/10/02 01:20:56;;;;;;;10.60;7.78;;;;;;;13.33;100.00;101116.34;5259715;28;20505;-67
2021/10/02 01:23:49;;;;;;;12.07;7.38;;;;;;;13.29;100.00;101118.41;5249502;28;20044;-67
2021/10/02 01:26:26;;;;;;;10.50;7.95;;;;;;;13.21;100.00;101118.25;5255432;28;20128;-67
2021/10/02 01:29:01;;;;;;;10.75;7.50;;;;;;;13.19;100.00;101117.59;5259983;28;20498;-67
2021/10/02 01:31:37;;;;;;;9.00;7.80;;;;;;;13.15;100.00;101110.94;5259285;28;20044;-67
2021/10/02 01:34:33;;;;;;;12.55;8.05;;;;;;;13.15;100.00;101097.78;5256830;28;20078;-67
2021/10/02 01:48:40;;;;;;;9.25;8.30;;;;;;;13.11;100.00;101107.75;5259903;28;20037;-67
2021/10/02 01:51:13;;;;;;;11.77;9.23;;;;;;;13.12;100.00;101105.97;5259141;28;20032;-67
2021/10/02 01:53:46;;;;;;;14.02;9.55;;;;;;;13.14;100.00;101109.25;5258510;28;20025;-67
2021/10/02 01:56:20;;;;;;;12.57;9.48;;;;;;;13.17;100.00;101095.84;5259940;28;20056;-67
2021/10/02 01:58:54;;;;;;;10.55;9.05;;;;;;;13.18;100.00;101097.50;5260442;28;20450;-67
2021/10/02 02:01:27;;;;;;;12.98;9.77;;;;;;;13.18;100.00;101092.22;5260729;28;20041;-67
2021/10/02 02:03:59;;;;;;;14.23;9.52;;;;;;;13.18;100.00;101081.69;5259338;28;20431;-67
2021/10/02 02:06:31;;;;;;;10.45;9.30;;;;;;;13.18;100.00;101083.50;5258351;28;20039;-67
2021/10/02 02:09:03;;;;;;;14.07;10.48;;;;;;;13.15;100.00;101082.84;5259627;28;20017;-67
2021/10/02 02:11:35;;;;;;;13.15;9.02;;;;;;;13.19;100.00;101082.56;5242665;28;20132;-67
2021/10/02 02:14:11;;;;;;;11.50;9.25;;;;;;;13.24;100.00;101080.34;5259004;28;20041;-67
2021/10/02 02:16:45;;;;;;;11.00;9.20;;;;;;;13.23;100.00;101082.16;5259500;28;20036;-67
2021/10/02 02:19:19;;;;;;;12.52;10.63;;;;;;;13.22;100.00;101083.09;5257063;28;20069;-67
2021/10/02 02:21:50;;;;;;;14.65;10.18;;;;;;;13.20;100.00;101071.88;5254380;28;20059;-67
2021/10/02 02:24:21;;;;;;;11.38;9.40;;;;;;;13.22;100.00;101069.09;5257885;28;20433;-67
2021/10/02 02:26:53;;;;;;;13.50;10.30;;;;;;;13.21;100.00;101070.06;5259140;28;20036;-67
2021/10/02 02:29:25;;;;;;;15.32;10.48;;;;;;;13.19;100.00;101072.03;5255783;28;20028;-67
2021/10/02 02:31:57;;;;;;;15.48;10.23;;;;;;;13.23;100.00;101076.91;5259186;28;20033;-67
2021/10/02 02:34:29;;;;;;;14.10;10.73;;;;;;;13.23;100.00;101068.16;5259320;28;20041;-67
2021/10/02 02:37:00;;;;;;;15.57;10.27;;;;;;;13.24;100.00;101054.88;5257597;28;20533;-67
2021/10/02 02:39:32;;;;;;;15.20;9.90;;;;;;;13.24;100.00;101048.78;5258664;28;20060;-67
2021/10/02 02:42:04;;;;;;;13.63;10.30;;;;;;;13.24;100.00;101057.50;5259425;28;20024;-67
2021/10/02 02:44:36;;;;;;;12.15;10.15;;;;;;;13.23;100.00;101055.00;5258583;28;20040;-67
2021/10/02 02:47:23;;;;;;;14.75;10.10;;;;;;;13.32;100.00;101052.34;5258431;28;20025;-67
2021/10/02 02:50:01;;;;;;;14.50;10.18;;;;;;;13.24;100.00;101051.41;5258564;28;20056;-67
2021/10/02 02:52:49;;;;;;;11.95;10.18;;;;;;;13.25;100.00;101051.25;5258871;28;20442;-67
2021/10/02 02:55:25;;;;;;;10.38;9.18;;;;;;;13.20;100.00;101061.34;5255725;28;20029;-67
2021/10/02 02:58:05;;;;;;;12.98;9.02;;;;;;;13.25;100.00;101050.44;5257965;28;20103;-67
2021/10/02 03:00:57;;;;;;;11.63;8.98;;;;;;;13.21;100.00;101049.03;5259103;28;20487;-67
2021/10/02 03:03:31;;;;;;;13.73;9.20;;;;;;;13.19;100.00;101046.56;5257156;28;20119;-67
2021/10/02 03:06:10;;;;;;;12.98;8.95;;;;;;;13.25;100.00;101048.63;5250490;28;20070;-67
2021/10/02 03:08:49;;;;;;;12.80;9.18;;;;;;;13.22;100.00;101051.53;5258967;28;20053;-67
2021/10/02 03:11:23;;;;;;;14.23;9.32;;;;;;;13.17;100.00;101052.91;5254241;28;20033;-67
2021/10/02 03:13:56;;;;;;;10.90;8.98;;;;;;;13.16;100.00;101038.94;5258496;28;20478;-67
2021/10/02 03:16:28;;;;;;;;;;;;;;;13.43;100.00;101032.09;5258987;28;20068;-67
2021/10/02 03:19:02;;;;;;;10.35;8.20;;;;;;;13.19;100.00;101038.66;5251299;28;19960;-67
2021/10/02 03:21:35;;;;;;;10.48;8.63;;;;;;;13.13;100.00;101053.19;5258832;28;20502;-67
2021/10/02 03:24:07;;;;;;;12.52;9.05;;;;;;;13.15;100.00;101068.84;5259251;28;20486;-67
2021/10/02 03:26:39;;;;;;;13.70;9.27;;;;;;;13.12;100.00;101066.50;5254651;28;20109;-67
2021/10/02 03:29:12;;;;;;;11.55;8.02;;;;;;;13.11;100.00;101064.84;5250346;28;20031;-67
2021/10/02 03:31:44;;;;;;;10.43;8.75;;;;;;;13.09;100.00;101053.63;5258496;28;20319;-67
2021/10/02 03:34:15;;;;;;;11.93;8.65;;;;;;;13.08;100.00;101049.34;5257876;28;20498;-67
2021/10/02 03:36:46;;;;;;;18.23;9.75;;;;;;;13.02;100.00;101057.78;5260583;28;20100;-67
2021/10/02 03:39:18;;;;;;;11.55;9.48;;;;;;;12.99;100.00;101058.88;5262130;28;20580;-67
2021/10/02 03:42:13;;;;;;;12.02;9.20;;;;;;;13.03;100.00;101046.28;5262007;28;20036;-67
2021/10/02 03:44:46;;;;;;;10.27;7.95;;;;;;;12.88;100.00;101052.00;5260436;28;20029;-67
2021/10/02 03:47:20;;;;;;;11.98;8.70;;;;;;;12.85;100.00;101054.91;5259155;28;20040;-67
2021/10/02 03:49:51;;;;;;;13.60;8.77;;;;;;;12.80;100.00;101058.91;5249871;28;20040;-67
2021/10/02 03:52:22;;;;;;;12.07;8.43;;;;;;;12.77;100.00;101064.47;5262085;28;20025;-67
2021/10/02 03:54:54;;;;;;;10.57;8.40;;;;;;;12.72;100.00;101067.50;5258702;28;20017;-67
2021/10/02 03:57:25;;;;;;;11.85;8.82;;;;;;;12.68;100.00;101063.47;5262256;28;20021;-67
2021/10/02 03:59:57;;;;;;;11.70;9.07;;;;;;;12.65;100.00;101056.72;5261930;28;20428;-67
2021/10/02 04:02:28;;;;;;;15.70;9.27;;;;;;;12.64;100.00;101057.66;5257042;28;20041;-67
2021/10/02 04:05:00;;;;;;;11.82;9.10;;;;;;;12.63;100.00;101061.28;5261698;28;20021;-67
2021/10/02 04:07:31;;;;;;;11.65;9.75;;;;;;;12.61;100.00;101055.34;5271569;28;20024;-67
2021/10/02 04:10:07;;;;;;;13.68;10.65;;;;;;;12.65;100.00;101058.50;5258450;28;20056;-67
2021/10/02 04:12:38;;;;;;;12.75;10.10;;;;;;;12.61;100.00;101062.38;5261195;28;20036;-67
2021/10/02 04:15:10;;;;;;;15.45;11.05;;;;;;;12.56;100.00;101046.19;5261517;28;20130;-67
2021/10/02 04:17:41;;;;;;;13.98;11.45;;;;;;;12.59;100.00;101043.28;5261098;28;20029;-67
2021/10/02 04:20:12;;;;;;;13.85;11.32;;;;;;;12.55;100.00;101042.75;5254825;28;20486;-67
2021/10/02 04:22:44;;;;;;;15.18;11.10;;;;;;;12.54;100.00;101051.59;5261614;28;20033;-67
2021/10/02 04:25:15;;;;;;;14.27;11.52;;;;;;;12.50;100.00;101052.84;5261215;28;20507;-67
2021/10/02 04:27:47;;;;;;;12.82;10.77;;;;;;;12.49;100.00;101058.22;5257200;28;20020;-67
2021/10/02 04:30:18;;;;;;;16.00;11.48;;;;;;;12.47;100.00;101047.03;5261412;28;20112;-67
2021/10/02 04:32:49;;;;;;;14.52;10.43;;;;;;;12.45;100.00;101052.41;5261133;28;20024;-67
2021/10/02 04:35:20;;;;;;;12.70;11.25;;;;;;;12.43;100.00;101050.91;5259244;28;20074;-67
2021/10/02 04:37:52;;;;;;;17.90;10.90;;;;;;;12.38;100.00;101046.84;5259347;28;20086;-67
2021/10/02 04:40:23;;;;;;;17.48;10.32;;;;;;;12.34;100.00;101050.72;5260507;28;20110;-67
2021/10/02 04:42:55;;;;;;;14.55;10.48;;;;;;;12.34;100.00;101052.53;5261396;28;20075;-67
2021/10/02 04:45:26;;;;;;;13.85;11.40;;;;;;;12.33;100.00;101049.06;5255360;28;20038;-67
2021/10/02 04:47:57;;;;;;;17.77;11.40;;;;;;;12.29;100.00;101045.06;5259955;28;20029;-67
2021/10/02 04:50:28;;;;;;;13.70;11.45;;;;;;;12.29;100.00;101049.50;5261007;28;20021;-67
2021/10/02 04:53:00;;;;;;;14.80;10.98;;;;;;;12.28;100.00;101067.06;5261080;28;20336;-67
2021/10/02 04:55:31;;;;;;;18.35;11.23;;;;;;;12.24;100.00;101065.66;5255853;28;20031;-68
2021/10/02 04:58:03;;;;;;;15.05;11.38;;;;;;;12.25;100.00;101066.50;5259448;28;20424;-68
2021/10/02 05:00:34;;;;;;;15.88;11.35;;;;;;;12.20;100.00;101059.03;5259889;28;20060;-67
2021/10/02 05:03:05;;;;;;;13.98;12.02;;;;;;;12.20;100.00;101059.03;5255028;28;20390;-67
2021/10/02 05:05:36;;;;;;;13.55;11.13;;;;;;;12.18;100.00;101051.25;5261008;28;20091;-67
2021/10/02 05:08:08;;;;;;;16.50;11.18;;;;;;;12.17;100.00;101059.28;5259226;28;20139;-67
2021/10/02 05:10:39;;;;;;;15.27;11.32;;;;;;;12.15;100.00;101050.69;5256918;28;20041;-67
2021/10/02 05:13:11;;;;;;;16.23;11.52;;;;;;;12.13;100.00;101063.97;5257535;28;20133;-67
2021/10/02 05:15:42;;;;;;;15.50;12.05;;;;;;;12.10;100.00;101052.91;5262010;28;20080;-67
2021/10/02 05:18:14;;;;;;;18.13;12.82;;;;;;;12.10;100.00;101059.00;5249122;28;20195;-67
2021/10/02 05:20:45;;;;;;;16.95;11.77;;;;;;;12.11;100.00;101060.66;5260147;28;20402;-67
2021/10/02 05:23:17;;;;;;;16.25;12.13;;;;;;;12.12;100.00;101058.84;5260685;28;20111;-67
2021/10/02 05:25:49;;;;;;;17.10;12.30;;;;;;;12.12;100.00;101064.09;5261248;28;20543;-67
2021/10/02 05:28:24;;;;;;;16.10;11.80;;;;;;;12.18;100.00;101060.94;5258594;28;20120;-67
2021/10/02 05:30:55;;;;;;;14.80;12.43;;;;;;;12.13;100.00;101063.16;5260067;28;20384;-67
2021/10/02 05:33:27;;;;;;;13.52;11.55;;;;;;;12.12;100.00;101067.59;5256997;28;20044;-67
2021/10/02 05:35:58;;;;;;;22.38;11.90;;;;;;;12.12;100.00;101062.31;5258517;28;20522;-67
2021/10/02 05:38:29;;;;;;;14.85;10.82;;;;;;;12.08;100.00;101060.09;5267229;28;20033;-68
2021/10/02 05:41:00;;;;;;;16.65;11.32;;;;;;;12.06;100.00;101056.78;5271076;28;20024;-67
2021/10/02 05:43:32;;;;;;;17.35;11.88;;;;;;;12.03;100.00;101060.50;5259633;28;20052;-67
2021/10/02 05:46:03;;;;;;;15.32;10.88;;;;;;;12.01;100.00;101061.56;5257177;28;20032;-67
2021/10/02 05:48:34;;;;;;;16.00;10.82;;;;;;;12.00;100.00;101057.31;5258405;28;20045;-67
2021/10/02 05:51:06;;;;;;;18.17;11.55;;;;;;;12.00;100.00;101057.31;5259686;28;20103;-67
2021/10/02 05:53:38;;;;;;;17.00;11.18;;;;;;;11.99;100.00;101053.03;5258309;28;20436;-67
2021/10/02 05:56:09;;;;;;;16.85;11.35;;;;;;;11.99;100.00;101059.09;5259026;28;20035;-67
2021/10/02 05:58:40;;;;;;;18.42;12.30;;;;;;;12.02;100.00;101060.63;5252894;28;20663;-67
2021/10/02 06:01:11;;;;;;;17.13;11.38;;;;;;;12.03;100.00;101060.50;5256447;28;20479;-67
2021/10/02 06:03:43;;;;;;;16.83;11.57;;;;;;;12.04;100.00;101056.88;5250603;28;20476;-67
2021/10/02 06:06:15;;;;;;;21.13;12.13;;;;;;;12.06;100.00;101062.03;5264265;28;20051;-67
2021/10/02 06:08:46;;;;;;;17.92;11.77;;;;;;;12.12;100.00;101067.59;5259314;28;20043;-67
2021/10/02 06:11:18;;;;;;;19.58;12.70;;;;;;;12.20;100.00;101074.78;5256435;28;20032;-67
2021/10/02 06:13:49;;;;;;;17.05;12.95;;;;;;;12.26;100.00;101074.22;5259356;28;20037;-67
2021/10/02 06:16:21;;;;;;;18.83;13.57;;;;;;;12.27;100.00;101075.88;5269672;28;20032;-67
2021/10/02 06:18:52;;;;;;;18.45;13.75;;;;;;;12.33;100.00;101075.34;5258271;28;20025;-67
2021/10/02 06:21:24;;;;;;;24.45;14.07;;;;;;;12.28;100.00;101061.81;5258629;28;20124;-67
2021/10/02 06:23:58;;;;;;;19.70;14.15;;;;;;;12.27;100.00;101070.63;5259235;28;20025;-67
2021/10/02 06:26:32;;;;;;;18.65;13.43;;;;;;;12.33;100.00;101071.91;5259092;28;20387;-67
2021/10/02 06:29:04;;;;;;;19.08;14.02;;;;;;;12.35;100.00;101072.56;5254025;28;20052;-67
2021/10/02 06:31:37;;;;;;;20.47;14.23;;;;;;;12.39;100.00;101072.19;5258958;28;20473;-67
2021/10/02 06:34:08;;;;;;;20.35;14.02;;;;;;;12.44;100.00;101076.22;5259215;28;20033;-67
2021/10/02 06:36:40;;;;;;;17.35;14.32;;;;;;;12.45;100.00;101081.31;5254393;28;20478;-67
2021/10/02 06:39:12;;;;;;;19.53;14.53;;;;;;;12.47;100.00;101068.88;5258014;28;20045;-67
2021/10/02 06:41:43;;;;;;;18.52;15.05;;;;;;;12.47;100.00;101068.06;5258805;28;20074;-67
2021/10/02 06:44:14;;;;;;;19.60;14.85;;;;;;;12.50;100.00;101073.88;5258951;28;20032;-67
2021/10/02 06:46:46;;;;;;;22.55;14.88;;;;;;;12.54;100.00;101071.75;5257220;28;20074;-67
2021/10/02 06:49:17;;;;;;;21.05;14.45;;;;;;;12.59;100.00;101072.22;5259303;28;20115;-67
2021/10/02 06:51:48;;;;;;;18.63;14.93;;;;;;;12.64;100.00;101069.97;5258736;28;20077;-67
2021/10/02 06:54:20;;;;;;;18.30;13.27;;;;;;;12.69;100.00;101077.44;5253354;28;20024;-67
2021/10/02 06:56:51;;;;;;;20.83;14.68;;;;;;;12.70;100.00;101064.19;5259113;28;20068;-67
2021/10/02 06:59:25;;;;;;;20.70;14.73;;;;;;;12.75;100.00;101063.75;5254565;28;20528;-67
2021/10/02 07:01:57;;;;;;;17.35;13.68;;;;;;;12.77;100.00;101052.16;5253060;28;20371;-67
2021/10/02 07:04:28;;;;;;;18.77;14.07;;;;;;;12.79;100.00;101054.63;5253912;28;20363;-67
2021/10/02 07:06:59;;;;;;;20.85;13.18;;;;;;;12.77;100.00;101048.69;5275772;28;20070;-68
2021/10/02 07:09:31;;;;;;;19.67;13.77;;;;;;;12.81;100.00;101047.44;5260819;28;20086;-68
2021/10/02 07:12:03;;;;;;;18.02;14.40;;;;;;;12.86;100.00;101045.22;5270607;28;20463;-67
2021/10/02 07:14:34;;;;;;;16.00;14.10;;;;;;;12.92;100.00;101042.03;5260647;28;20338;-67
2021/10/02 07:17:08;;;;;;;19.45;13.55;;;;;;;12.93;100.00;101029.72;5269569;28;20482;-67
2021/10/02 07:19:39;;;;;;;17.02;13.73;;;;;;;12.98;100.00;101035.38;5257946;28;20043;-68
2021/10/02 07:22:11;;;;;;;19.65;13.25;;;;;;;12.99;100.00;101024.69;5263461;28;20021;-67
2021/10/02 07:24:42;;;;;;;19.30;12.57;;;;;;;13.03;100.00;101022.63;5264001;28;20139;-67
2021/10/02 07:27:14;;;;;;;19.10;13.60;;;;;;;13.09;100.00;101027.31;5260680;28;20025;-67
2021/10/02 07:29:45;;;;;;;16.80;12.48;;;;;;;13.13;100.00;101023.44;5260327;28;20017;-67
2021/10/02 07:32:16;;;;;;;18.33;12.63;;;;;;;13.22;100.00;101021.75;5262008;28;20031;-67
2021/10/02 07:34:47;;;;;;;17.58;13.40;;;;;;;13.25;100.00;101016.22;5260765;28;20025;-67
2021/10/02 07:37:19;;;;;;;17.55;12.43;;;;;;;13.32;100.00;101012.06;5263900;28;20318;-67
2021/10/02 07:39:50;;;;;;;17.20;13.60;;;;;;;13.37;100.00;101017.72;5261245;28;20088;-67
2021/10/02 07:42:23;;;;;;;17.27;14.23;;;;;;;13.38;100.00;101017.59;5259010;28;20225;-67
2021/10/02 07:44:58;;;;;;;18.25;14.20;;;;;;;13.44;100.00;101012.72;5256412;28;20552;-67
2021/10/02 07:47:32;;;;;;;17.48;15.05;;;;;;;13.48;100.00;101008.81;5260847;28;20382;-67
2021/10/02 07:50:07;;;;;;;21.30;14.88;;;;;;;13.53;100.00;100996.88;5261621;28;20032;-67
2021/10/02 07:52:40;;;;;;;21.23;15.38;;;;;;;13.51;100.00;100987.47;5258535;28;20189;-67
2021/10/02 07:55:14;;;;;;;19.92;15.32;;;;;;;13.60;100.00;100995.34;5260322;28;20021;-68
2021/10/02 07:57:47;;;;;;;17.13;15.25;;;;;;;13.61;100.00;100990.88;5267613;28;20025;-68
2021/10/02 08:00:20;;;;;;;20.35;17.27;;;;;;;13.61;100.00;100994.34;5256352;28;20021;-67
2021/10/02 08:02:53;;;;;;;22.30;16.95;;;;;;;13.69;100.00;100987.53;5260651;28;20394;-67
2021/10/02 08:05:24;;;;;;;21.33;16.90;;;;;;;13.72;100.00;100992.50;5258010;28;20044;-67
2021/10/02 08:07:56;;;;;;;20.50;16.83;;;;;;;13.78;100.00;100995.34;5260561;28;20024;-67
2021/10/02 08:10:29;;;;;;;20.17;15.90;;;;;;;13.75;100.00;100982.50;5260797;28;20028;-67
2021/10/02 08:13:01;;;;;;;18.75;14.20;;;;;;;13.81;100.00;100981.06;5254942;28;20039;-67
2021/10/02 08:15:32;;;;;;;17.13;13.40;;;;;;;13.85;100.00;100985.88;5256184;28;20028;-66
2021/10/02 08:18:04;;;;;;;13.63;11.57;;;;;;;13.89;100.00;100986.44;5257838;28;20025;-67
2021/10/02 08:20:36;;;;;;;15.10;11.05;;;;;;;13.93;100.00;100976.44;5252233;28;20036;-66
2021/10/02 08:23:08;;;;;;;15.00;10.68;;;;;;;13.99;100.00;100974.03;5257498;28;20471;-67
2021/10/02 08:25:43;;;;;;;13.40;9.90;;;;;;;14.04;100.00;100973.56;5253578;28;20064;-67
2021/10/02 08:28:16;;;;;;;17.30;9.80;;;;;;;14.08;100.00;100970.50;5251981;28;20029;-67
2021/10/02 08:30:50;;;;;;;15.63;8.63;;;;;;;14.15;100.00;100973.34;5255142;28;20120;-67
2021/10/02 08:33:21;;;;;;;14.05;9.10;;;;;;;14.14;100.00;100965.63;5254519;28;20036;-67
2021/10/02 08:35:52;;;;;;;14.50;8.25;;;;;;;14.27;100.00;100966.06;5248254;28;20033;-67
2021/10/02 08:38:24;;;;;;;12.20;7.47;;;;;;;14.35;100.00;100961.69;5255229;28;20082;-67
2021/10/02 08:40:55;;;;;;;10.63;7.45;;;;;;;14.41;100.00;100948.88;5253067;28;20119;-67
2021/10/02 08:43:27;;;;;;;13.52;6.90;;;;;;;14.45;100.00;100934.41;5257450;28;20033;-67
2021/10/02 08:46:01;;;;;;;9.85;6.03;;;;;;;14.52;100.00;100935.50;5256954;28;20032;-67
2021/10/02 08:48:33;;;;;;;8.38;5.82;;;;;;;14.46;100.00;100930.78;5254412;28;21773;-67
2021/10/02 08:51:05;;;;;;;9.32;5.75;;;;;;;14.50;100.00;100926.91;5252801;28;20446;-67
2021/10/02 08:53:36;;;;;;;9.05;5.28;;;;;;;14.64;100.00;100914.97;5260417;28;20037;-67
2021/10/02 08:56:08;;;;;;;7.32;4.85;;;;;;;14.65;100.00;100919.25;5249105;28;20024;-66
2021/10/02 08:58:41;;;;;;;8.00;4.90;;;;;;;14.70;100.00;100923.09;5255715;28;20037;-67
2021/10/02 09:01:12;;;;;;;10.25;5.13;;;;;;;14.75;100.00;100923.47;5237923;28;20541;-67
2021/10/02 09:03:43;;;;;;;7.13;4.90;;;;;;;14.78;100.00;100923.16;5255342;28;20077;-67
2021/10/02 09:06:15;;;;;;;7.18;4.50;;;;;;;14.89;100.00;100927.34;5257088;28;20025;-67
2021/10/02 09:08:46;;;;;;;6.22;3.92;;;;;;;14.83;100.00;100922.69;5246071;28;20078;-67
2021/10/02 09:11:17;;;;;;;11.15;4.85;;;;;;;14.83;100.00;100923.50;5255567;28;20029;-67
2021/10/02 09:13:48;;;;;;;7.90;3.70;;;;;;;14.83;100.00;100917.41;5248790;28;20386;-67
2021/10/02 09:16:20;;;;;;;6.05;3.50;;;;;;;14.82;100.00;100919.22;5257435;28;20021;-67
2021/10/02 09:18:51;;;;;;;8.30;3.75;;;;;;;14.87;100.00;100918.75;5253023;28;20065;-67
2021/10/02 09:21:23;;;;;;;5.15;3.47;;;;;;;14.92;100.00;100920.91;5256131;28;20031;-67
2021/10/02 09:23:54;;;;;;;6.03;3.15;;;;;;;14.91;100.00;100916.63;5244684;28;20123;-67
2021/10/02 09:26:44;;;;;;;6.90;3.40;;;;;;;15.08;100.00;100906.00;5257587;28;20496;-67
2021/10/02 09:29:16;;;;;;;7.97;3.58;;;;;;;15.08;100.00;100907.81;5256155;28;20029;-67
2021/10/02 09:31:47;;;;;;;6.28;3.35;;;;;;;15.03;100.00;100888.97;5257757;28;20037;-67
2021/10/02 09:34:25;;;;;;;5.35;3.10;;;;;;;15.08;100.00;100889.34;5258174;28;20402;-67
2021/10/02 09:36:57;;;;;;;5.13;2.80;;;;;;;14.98;100.00;100886.00;5254712;28;20153;-67
2021/10/02 09:39:42;;;;;;;5.30;2.85;;;;;;;15.12;100.00;100888.03;5256672;28;20051;-67
2021/10/02 09:42:33;;;;;;;6.38;3.13;;;;;;;15.05;100.00;100876.47;5249401;28;20051;-67
2021/10/02 09:45:13;;;;;;;5.00;2.70;;;;;;;15.10;100.00;100874.16;5254037;28;20056;-67
2021/10/02 09:47:49;;;;;;;4.50;2.67;;;;;;;15.14;100.00;100875.50;5256291;28;20453;-67
2021/10/02 09:50:23;;;;;;;7.43;2.70;;;;;;;15.20;100.00;100879.34;5256869;28;20032;-66
2021/10/02 09:53:10;;;;;;;5.55;2.50;;;;;;;15.28;100.00;100864.34;5255222;28;20087;-67
2021/10/02 09:55:42;;;;;;;5.43;2.80;;;;;;;15.24;100.00;100855.09;5253570;28;20033;-66
2021/10/02 09:58:27;;;;;;;5.57;2.33;;;;;;;15.23;100.00;100866.66;5257448;28;20433;-67
2021/10/02 10:01:01;;;;;;;4.00;2.03;;;;;;;15.22;100.00;100861.50;5256703;28;20040;-66
2021/10/02 10:03:59;;;;;;;5.05;2.58;;;;;;;15.39;100.00;100851.84;5258972;28;20394;-66
2021/10/02 10:06:31;;;;;;;5.10;2.22;;;;;;;15.39;100.00;100855.31;5251514;28;20060;-66
2021/10/02 10:09:10;;;;;;;3.63;2.38;;;;;;;15.50;100.00;100846.25;5256388;28;20621;-66
2021/10/02 10:11:50;;;;;;;4.55;2.10;;;;;;;15.58;100.00;100844.44;5254497;28;20025;-66
2021/10/02 10:14:24;;;;;;;4.13;2.08;;;;;;;15.72;100.00;100831.59;5256201;28;20557;-66
2021/10/02 10:16:57;;;;;;;4.57;1.90;;;;;;;15.82;100.00;100827.81;5257880;28;20044;-66
2021/10/02 10:19:31;;;;;;;2.90;1.48;;;;;;;15.91;100.00;100817.25;5255016;28;20029;-66
2021/10/02 10:22:07;;;;;;;5.13;1.95;;;;;;;15.82;100.00;100825.19;5257203;28;20036;-67
2021/10/02 10:24:41;;;;;;;4.43;1.58;;;;;;;15.90;100.00;100820.91;5256682;28;20399;-67
2021/10/02 10:27:12;;;;;;;3.10;1.50;;;;;;;15.87;100.00;100823.84;5257155;28;20039;-66
2021/10/02 10:29:44;;;;;;;4.55;1.60;;;;;;;15.91;100.00;100811.97;5254761;28;20036;-66
2021/10/02 10:32:15;;;;;;;5.40;1.70;;;;;;;15.98;100.00;100813.78;5257854;28;20051;-66
2021/10/02 10:34:47;;;;;;;2.30;1.48;;;;;;;16.10;100.00;100805.50;5257830;28;20436;-67
2021/10/02 10:37:19;;;;;;;3.67;1.30;;;;;;;16.21;100.00;100805.16;5257528;28;20025;-66
2021/10/02 10:39:57;;;;;;;3.33;1.30;;;;;;;16.21;100.00;100805.16;5252661;28;20044;-66
2021/10/02 10:42:29;;;;;;;4.50;1.30;;;;;;;16.36;100.00;100800.03;5256740;28;20029;-67
2021/10/02 10:45:01;;;;;;;3.25;1.10;;;;;;;16.45;100.00;100802.50;5263613;28;20241;-67
2021/10/02 10:47:32;;;;;;;3.00;1.27;;;;;;;16.61;100.00;100798.16;5258158;28;20052;-67
2021/10/02 10:50:05;;;;;;;3.75;1.15;;;;;;;16.65;100.00;100786.22;5253656;28;20035;-67
2021/10/02 10:52:38;;;;;;;3.95;1.13;;;;;;;16.86;100.00;100790.94;5261114;28;20033;-67
2021/10/02 10:55:12;;;;;;;3.33;1.23;;;;;;;16.90;100.00;100781.69;5259571;28;20030;-67
2021/10/02 10:57:49;;;;;;;3.63;1.35;;;;;;;16.80;100.00;100783.72;5260279;28;20025;-67
2021/10/02 11:00:32;;;;;;;3.22;1.60;;;;;;;16.73;100.00;100773.81;5257913;28;20082;-67
2021/10/02 11:03:04;;;;;;;;;;;;;;;16.93;100.00;100776.88;5264745;28;20055;-67
2021/10/02 11:05:35;;;;;;;3.15;1.10;;;;;;;16.57;100.00;100779.16;5265116;28;19960;-67
2021/10/02 11:08:08;;;;;;;4.57;1.42;;;;;;;16.59;100.00;100773.66;5262999;28;20032;-67
2021/10/02 11:10:45;;;;;;;4.43;1.38;;;;;;;16.64;100.00;100776.66;5265084;28;20466;-67
2021/10/02 11:13:21;;;;;;;2.83;1.13;;;;;;;16.66;100.00;100770.16;5256258;28;20024;-67
2021/10/02 11:15:53;;;;;;;2.60;1.17;;;;;;;16.73;100.00;100763.22;5257992;28;20029;-67
2021/10/02 11:18:45;;;;;;;2.80;1.15;;;;;;;16.88;100.00;100757.22;5257926;28;20360;-67
2021/10/02 11:21:18;;;;;;;4.78;1.48;;;;;;;16.88;100.00;100754.56;5256082;28;20031;-67
2021/10/02 11:24:09;;;;;;;3.63;1.30;;;;;;;17.01;100.00;100741.63;5257044;28;20382;-68
2021/10/02 11:26:45;;;;;;;2.67;1.10;;;;;;;16.98;100.00;100740.13;5261453;28;20151;-67
2021/10/02 11:29:27;;;;;;;3.47;1.20;;;;;;;17.06;100.00;100738.44;5260011;28;20367;-67
2021/10/02 11:32:17;;;;;;;4.80;1.52;;;;;;;17.11;100.00;100721.00;5260484;28;20025;-68
2021/10/02 11:35:08;;;;;;;4.28;1.65;;;;;;;17.10;100.00;100711.44;5253635;28;20486;-68
2021/10/02 11:37:47;;;;;;;5.07;1.55;;;;;;;17.01;100.00;100699.25;5247815;28;20032;-68
2021/10/02 11:40:45;;;;;;;3.55;1.30;;;;;;;17.16;100.00;100688.72;5248090;28;20041;-68
2021/10/02 11:43:22;;;;;;;4.40;1.33;;;;;;;17.09;100.00;100682.50;5248711;28;20123;-68
2021/10/02 11:45:56;;;;;;;4.15;1.20;;;;;;;17.24;100.00;100694.78;5252108;28;20017;-68
2021/10/02 11:48:40;;;;;;;3.35;1.40;;;;;;;17.22;100.00;100674.78;5252025;28;20032;-69
2021/10/02 11:51:15;;;;;;;2.92;1.20;;;;;;;17.24;100.00;100662.19;5254916;28;20044;-68
2021/10/02 11:53:50;;;;;;;3.53;1.20;;;;;;;17.31;100.00;100667.59;5253656;28;20017;-68
2021/10/02 11:56:29;;;;;;;3.20;1.40;;;;;;;17.36;100.00;100657.28;5256657;28;20494;-68
2021/10/02 11:59:01;;;;;;;3.60;1.70;;;;;;;17.25;100.00;100646.13;5260601;28;20036;-68
2021/10/02 12:01:42;;;;;;;4.10;1.20;;;;;;;17.40;100.00;100651.47;5261805;28;20040;-68
2021/10/02 12:04:15;;;;;;;4.20;1.70;;;;;;;17.34;100.00;100643.41;5260158;28;20513;-68
2021/10/02 12:06:47;;;;;;;2.42;1.02;;;;;;;17.29;100.00;100638.66;5255658;28;20028;-68
2021/10/02 12:09:18;;;;;;;2.88;1.25;;;;;;;17.31;100.00;100630.50;5259458;28;20040;-68
2021/10/02 12:11:51;;;;;;;4.35;1.20;;;;;;;17.27;100.00;100628.25;5257806;28;20044;-68
2021/10/02 12:14:24;;;;;;;3.50;1.30;;;;;;;17.26;100.00;100623.13;5251554;28;20025;-68
2021/10/02 12:16:57;;;;;;;;;;;;;;;17.52;100.00;100609.47;5259534;28;20060;-68
2021/10/02 12:19:30;;;;;;;2.63;1.10;;;;;;;17.31;100.00;100614.63;5256143;28;19921;-68
2021/10/02 12:22:04;;;;;;;4.00;1.10;;;;;;;17.36;100.00;100602.50;5265105;28;20024;-68
2021/10/02 12:24:38;;;;;;;4.35;1.60;;;;;;;17.30;100.00;100610.34;5258437;28;20540;-68
2021/10/02 12:27:16;;;;;;;2.67;1.20;;;;;;;17.42;100.00;100601.78;5263342;28;20086;-68
2021/10/02 12:29:50;;;;;;;3.05;1.10;;;;;;;17.41;100.00;100604.59;5259992;28;20102;-68
2021/10/02 12:32:23;;;;;;;3.70;1.23;;;;;;;17.42;100.00;100600.94;5260173;28;20052;-68
2021/10/02 12:34:57;;;;;;;3.08;1.02;;;;;;;17.51;100.00;100591.94;5259339;28;20044;-68
2021/10/02 12:37:29;;;;;;;1.60;0.90;;;;;;;17.56;100.00;100580.78;5258212;28;20589;-68